Kaiwo Maru — JMMU — position and weather

sailwx.info

Track history (hours):
 
Tides and Currents Weather Stations Pressure Air Temp Water Temp Dewpoint Dewpoint Depression Visibility Wind Speed Wind Dir Waves Ship Positions

Kaiwo Maru (Japan)

Built in 1989. Trains merchant marine cadets for Japan's National Institute for Sea Training.

Ship's website: http://www.kohkun.go.jp/en/ships/kaiwomaru.html

Last reported at 2017-Nov-01 00:15 UTC. Time now 2017-Nov-20 19:01 UTC.
Position N 34°06' E 134°55'.
Warning: this ship's position is 19 days out of date.

Length 110.1 m; beam 13.8 m; draft 6 m.

Type: Sailing vessel. MMSI: 431006000.

Date/timePositionNaut miles runAvg speedWind from/ knotsBaromVisibWave heightAir tempDewpointWater temp
2017-Nov-01 00:15N 34°06' E 134°55'610.5
2017-Oct-31 23:42N 34°11' E 134°57'14 1.3
2017-Oct-31 12:49N 34°25' E 134°55'0 0.0
2017-Oct-30 17:19N 34°25' E 134°55'0 0.0
2017-Oct-30 04:47N 34°25' E 134°56'4 7.7
2017-Oct-30 04:18N 34°28' E 134°59'3 9.3
2017-Oct-30 04:00N 34°29' E 135°02'5 7.7
2017-Oct-30 03:23N 34°30' E 135°08'3 8.9
2017-Oct-30 03:00N 34°31' E 135°11'5 9.4
2017-Oct-30 02:29N 34°34' E 135°16'5 9.0
2017-Oct-30 01:59N 34°37' E 135°20'4 8.7
2017-Oct-30 01:30N 34°39' E 135°25'1 1.2
2017-Oct-30 00:40N 34°39' E 135°26'0 0.0
2017-Oct-30 00:28N 34°39' E 135°26'0 0.0
2017-Oct-29 23:52N 34°39' E 135°26'0 0.0
2017-Oct-29 21:40N 34°39' E 135°26'0 0.0
2017-Oct-29 21:16N 34°39' E 135°26'0 0.0
2017-Oct-29 20:58N 34°39' E 135°26'0 0.0
2017-Oct-29 13:34N 34°39' E 135°26'0 0.0
2017-Oct-29 13:04N 34°39' E 135°26'0 0.0
2017-Oct-29 12:58N 34°39' E 135°26'0 0.0
2017-Oct-29 12:22N 34°39' E 135°26'0 0.0
2017-Oct-29 11:52N 34°39' E 135°26'0 0.0
2017-Oct-29 11:10N 34°39' E 135°26'0 0.0
2017-Oct-29 10:58N 34°39' E 135°26'0 0.0
2017-Oct-29 10:22N 34°39' E 135°26'0 0.0
2017-Oct-29 09:46N 34°39' E 135°26'0 0.0
2017-Oct-29 09:16N 34°39' E 135°26'0 0.0
2017-Oct-29 08:58N 34°39' E 135°26'0 0.0
2017-Oct-29 08:22N 34°39' E 135°26'0 0.0
2017-Oct-29 07:52N 34°39' E 135°26'0 0.0
2017-Oct-29 07:22N 34°39' E 135°26'0 0.0
2017-Oct-29 06:52N 34°39' E 135°26'0 0.0
2017-Oct-29 06:28N 34°39' E 135°26'0 0.0
2017-Oct-29 05:58N 34°39' E 135°26'0 0.0
2017-Oct-29 05:28N 34°39' E 135°26'0 0.0
2017-Oct-29 04:58N 34°39' E 135°26'0 0.0
2017-Oct-29 04:28N 34°39' E 135°26'0 0.0
2017-Oct-28 18:58N 34°39' E 135°26'0 0.0
2017-Oct-28 17:46N 34°39' E 135°26'0 0.0
2017-Oct-28 17:22N 34°39' E 135°26'0 0.0
2017-Oct-28 16:34N 34°39' E 135°26'0 0.0
2017-Oct-28 16:28N 34°39' E 135°26'0 0.0
2017-Oct-28 15:58N 34°39' E 135°26'0 0.0
2017-Oct-28 15:28N 34°39' E 135°26'0 0.0
2017-Oct-28 14:52N 34°39' E 135°26'0 0.0
2017-Oct-28 14:28N 34°39' E 135°26'0 0.0
2017-Oct-28 13:58N 34°39' E 135°26'0 0.0
2017-Oct-28 13:22N 34°39' E 135°26'0 0.0
2017-Oct-28 12:46N 34°39' E 135°26'0 0.0
2017-Oct-28 12:22N 34°39' E 135°26'0 0.0
2017-Oct-28 11:04N 34°39' E 135°26'0 0.0
2017-Oct-28 10:46N 34°39' E 135°26'0 0.0
2017-Oct-28 09:22N 34°39' E 135°26'0 0.0
2017-Oct-28 08:58N 34°39' E 135°26'0 0.0
2017-Oct-28 08:22N 34°39' E 135°26'0 0.0
2017-Oct-28 07:52N 34°39' E 135°26'0 0.0
2017-Oct-28 07:22N 34°39' E 135°26'0 0.0
2017-Oct-28 06:22N 34°39' E 135°26'0 0.0
2017-Oct-28 05:10N 34°39' E 135°26'0 0.0
2017-Oct-28 04:52N 34°39' E 135°26'0 0.0
2017-Oct-28 03:58N 34°39' E 135°26'0 0.0
2017-Oct-28 01:58N 34°39' E 135°26'0 0.0
2017-Oct-28 01:22N 34°39' E 135°26'0 0.1
2017-Oct-28 00:46N 34°39' E 135°26'0 0.0
2017-Oct-28 00:28N 34°39' E 135°26'0 0.0
2017-Oct-27 23:52N 34°39' E 135°26'0 0.0
2017-Oct-27 23:16N 34°39' E 135°26'0 0.0
2017-Oct-27 22:52N 34°39' E 135°26'0 0.0
2017-Oct-27 22:28N 34°39' E 135°26'0 0.0
2017-Oct-27 21:58N 34°39' E 135°26'0 0.0
2017-Oct-27 21:28N 34°39' E 135°26'0 0.0
2017-Oct-27 20:58N 34°39' E 135°26'0 0.0
2017-Oct-27 20:28N 34°39' E 135°26'0 0.0
2017-Oct-27 19:58N 34°39' E 135°26'0 0.0
2017-Oct-27 19:28N 34°39' E 135°26'0 0.1
2017-Oct-27 18:52N 34°39' E 135°26'0 0.1
2017-Oct-27 18:16N 34°39' E 135°26'0 0.1
2017-Oct-27 17:58N 34°39' E 135°26'0 0.0
2017-Oct-27 17:28N 34°39' E 135°26'0 0.0
2017-Oct-27 16:46N 34°39' E 135°26'0 0.0
2017-Oct-27 16:28N 34°39' E 135°26'0 0.0
2017-Oct-27 15:46N 34°39' E 135°26'0 0.0
2017-Oct-27 15:28N 34°39' E 135°26'0 0.0
2017-Oct-27 12:04N 34°39' E 135°26'0 0.0
2017-Oct-27 11:46N 34°39' E 135°26'0 0.0
2017-Oct-27 08:04N 34°39' E 135°26'0 0.0
2017-Oct-27 07:34N 34°39' E 135°26'0 0.0
2017-Oct-27 06:40N 34°39' E 135°26'0 0.1
2017-Oct-27 06:28N 34°39' E 135°26'0 0.0
2017-Oct-27 05:34N 34°39' E 135°26'0 0.0
2017-Oct-27 05:28N 34°39' E 135°26'0 0.0
2017-Oct-27 03:10N 34°39' E 135°26'0 0.0
2017-Oct-27 02:46N 34°39' E 135°26'0 0.0
2017-Oct-26 23:58N 34°39' E 135°26'0 0.0
2017-Oct-26 23:10N 34°39' E 135°26'0 0.0
2017-Oct-26 22:46N 34°39' E 135°26'0 0.0
2017-Oct-26 22:28N 34°39' E 135°26'0 0.0
2017-Oct-26 21:40N 34°39' E 135°26'0 0.0
2017-Oct-26 20:40N 34°39' E 135°26'0 0.0
2017-Oct-26 20:28N 34°39' E 135°26'0 0.0
2017-Oct-26 19:58N 34°39' E 135°26'0 0.0
2017-Oct-26 19:22N 34°39' E 135°26'0 0.0
2017-Oct-26 18:52N 34°39' E 135°26'0 0.0
2017-Oct-26 18:04N 34°39' E 135°26'0 0.3
2017-Oct-26 17:52N 34°39' E 135°26'0 0.1
2017-Oct-26 17:16N 34°39' E 135°26'0 0.0
2017-Oct-26 16:16N 34°39' E 135°26'0 0.0
2017-Oct-26 15:52N 34°39' E 135°26'0 0.0
2017-Oct-26 14:40N 34°39' E 135°26'0 0.0
2017-Oct-26 14:16N 34°39' E 135°26'0 0.0
2017-Oct-26 13:04N 34°39' E 135°26'0 0.0
2017-Oct-26 12:52N 34°39' E 135°26'0 0.0
2017-Oct-26 12:22N 34°39' E 135°26'0 0.0
2017-Oct-26 11:52N 34°39' E 135°26'0 0.0
2017-Oct-26 11:28N 34°39' E 135°26'0 0.0
2017-Oct-26 09:52N 34°39' E 135°26'0 0.0
2017-Oct-26 09:22N 34°39' E 135°26'0 0.0
2017-Oct-26 07:46N 34°39' E 135°26'0 0.1
2017-Oct-26 07:28N 34°39' E 135°26'0 0.0
2017-Oct-26 06:52N 34°39' E 135°26'0 0.0
2017-Oct-26 04:40N 34°39' E 135°26'0 0.5
2017-Oct-26 04:28N 34°39' E 135°26'0 0.0
2017-Oct-26 03:58N 34°39' E 135°26'0 0.0
2017-Oct-26 03:20N 34°39' E 135°26'1 2.4
2017-Oct-26 02:58N 34°39' E 135°25'2 4.9
2017-Oct-26 02:30N 34°38' E 135°23'3 6.4
2017-Oct-26 01:59N 34°35' E 135°20'0 0.1
2017-Oct-26 01:15N 34°35' E 135°20'0 0.2
2017-Oct-26 00:51N 34°35' E 135°20'0 0.0
2017-Oct-26 00:21N 34°35' E 135°20'0 0.0
2017-Oct-25 23:57N 34°35' E 135°20'0 0.0
2017-Oct-25 21:27N 34°35' E 135°20'0 0.0
2017-Oct-25 20:09N 34°35' E 135°20'0 0.0
2017-Oct-25 18:39N 34°35' E 135°20'0 0.0
2017-Oct-25 18:15N 34°35' E 135°20'0 0.1
2017-Oct-25 17:57N 34°35' E 135°20'0 0.1
2017-Oct-25 17:09N 34°35' E 135°20'0 0.2
2017-Oct-25 16:51N 34°35' E 135°20'0 0.1
2017-Oct-25 16:27N 34°35' E 135°20'0 0.0
2017-Oct-25 15:45N 34°35' E 135°20'0 0.0
2017-Oct-25 14:15N 34°35' E 135°20'0 0.0
2017-Oct-25 13:51N 34°35' E 135°20'0 0.0
2017-Oct-25 12:33N 34°35' E 135°20'0 0.0
2017-Oct-25 11:21N 34°35' E 135°20'0 0.0
2017-Oct-25 10:33N 34°35' E 135°20'0 0.0
2017-Oct-25 10:27N 34°35' E 135°20'0 0.0
2017-Oct-25 09:51N 34°35' E 135°20'0 0.0
2017-Oct-25 09:27N 34°35' E 135°20'0 0.0
2017-Oct-25 08:57N 34°35' E 135°20'0 0.0
2017-Oct-25 08:27N 34°35' E 135°20'0 0.0
2017-Oct-25 07:33N 34°35' E 135°20'0 0.1
2017-Oct-25 07:15N 34°35' E 135°20'0 0.0
2017-Oct-25 06:57N 34°35' E 135°20'0 0.3
2017-Oct-25 06:30N 34°35' E 135°20'1 2.9
2017-Oct-25 05:59N 34°34' E 135°19'4 8.6
2017-Oct-25 05:28N 34°34' E 135°13'5 9.6
2017-Oct-25 04:59N 34°35' E 135°08'4 9.2
2017-Oct-25 04:30N 34°36' E 135°03'  
Track history (hours):
 
Tides and Currents Weather Stations Pressure Air Temp Water Temp Dewpoint Dewpoint Depression Visibility Wind Speed Wind Dir Waves Ship Positions

Kaiwo Maru (Japan)

Built in 1989. Trains merchant marine cadets for Japan's National Institute for Sea Training.

Ship's website: http://www.kohkun.go.jp/en/ships/kaiwomaru.html

Last reported at 2017-Nov-01 00:15 UTC. Time now 2017-Nov-20 19:01 UTC.
Position N 34°06' E 134°55'.
Warning: this ship's position is 19 days out of date.

Length 110.1 m; beam 13.8 m; draft 6 m.

Type: Sailing vessel. MMSI: 431006000.

Date/timePositionNaut miles runAvg speedWind from/ knotsBaromVisibWave heightAir tempDewpointWater temp
2017-Nov-01 00:15N 34°06' E 134°55'610.5
2017-Oct-31 23:42N 34°11' E 134°57'14 1.3
2017-Oct-31 12:49N 34°25' E 134°55'0 0.0
2017-Oct-30 17:19N 34°25' E 134°55'0 0.0
2017-Oct-30 04:47N 34°25' E 134°56'4 7.7
2017-Oct-30 04:18N 34°28' E 134°59'3 9.3
2017-Oct-30 04:00N 34°29' E 135°02'5 7.7
2017-Oct-30 03:23N 34°30' E 135°08'3 8.9
2017-Oct-30 03:00N 34°31' E 135°11'5 9.4
2017-Oct-30 02:29N 34°34' E 135°16'5 9.0
2017-Oct-30 01:59N 34°37' E 135°20'4 8.7
2017-Oct-30 01:30N 34°39' E 135°25'1 1.2
2017-Oct-30 00:40N 34°39' E 135°26'0 0.0
2017-Oct-30 00:28N 34°39' E 135°26'0 0.0
2017-Oct-29 23:52N 34°39' E 135°26'0 0.0
2017-Oct-29 21:40N 34°39' E 135°26'0 0.0
2017-Oct-29 21:16N 34°39' E 135°26'0 0.0
2017-Oct-29 20:58N 34°39' E 135°26'0 0.0
2017-Oct-29 13:34N 34°39' E 135°26'0 0.0
2017-Oct-29 13:04N 34°39' E 135°26'0 0.0
2017-Oct-29 12:58N 34°39' E 135°26'0 0.0
2017-Oct-29 12:22N 34°39' E 135°26'0 0.0
2017-Oct-29 11:52N 34°39' E 135°26'0 0.0
2017-Oct-29 11:10N 34°39' E 135°26'0 0.0
2017-Oct-29 10:58N 34°39' E 135°26'0 0.0
2017-Oct-29 10:22N 34°39' E 135°26'0 0.0
2017-Oct-29 09:46N 34°39' E 135°26'0 0.0
2017-Oct-29 09:16N 34°39' E 135°26'0 0.0
2017-Oct-29 08:58N 34°39' E 135°26'0 0.0
2017-Oct-29 08:22N 34°39' E 135°26'0 0.0
2017-Oct-29 07:52N 34°39' E 135°26'0 0.0
2017-Oct-29 07:22N 34°39' E 135°26'0 0.0
2017-Oct-29 06:52N 34°39' E 135°26'0 0.0
2017-Oct-29 06:28N 34°39' E 135°26'0 0.0
2017-Oct-29 05:58N 34°39' E 135°26'0 0.0
2017-Oct-29 05:28N 34°39' E 135°26'0 0.0
2017-Oct-29 04:58N 34°39' E 135°26'0 0.0
2017-Oct-29 04:28N 34°39' E 135°26'0 0.0
2017-Oct-28 18:58N 34°39' E 135°26'0 0.0
2017-Oct-28 17:46N 34°39' E 135°26'0 0.0
2017-Oct-28 17:22N 34°39' E 135°26'0 0.0
2017-Oct-28 16:34N 34°39' E 135°26'0 0.0
2017-Oct-28 16:28N 34°39' E 135°26'0 0.0
2017-Oct-28 15:58N 34°39' E 135°26'0 0.0
2017-Oct-28 15:28N 34°39' E 135°26'0 0.0
2017-Oct-28 14:52N 34°39' E 135°26'0 0.0
2017-Oct-28 14:28N 34°39' E 135°26'0 0.0
2017-Oct-28 13:58N 34°39' E 135°26'0 0.0
2017-Oct-28 13:22N 34°39' E 135°26'0 0.0
2017-Oct-28 12:46N 34°39' E 135°26'0 0.0
2017-Oct-28 12:22N 34°39' E 135°26'0 0.0
2017-Oct-28 11:04N 34°39' E 135°26'0 0.0
2017-Oct-28 10:46N 34°39' E 135°26'0 0.0
2017-Oct-28 09:22N 34°39' E 135°26'0 0.0
2017-Oct-28 08:58N 34°39' E 135°26'0 0.0
2017-Oct-28 08:22N 34°39' E 135°26'0 0.0
2017-Oct-28 07:52N 34°39' E 135°26'0 0.0
2017-Oct-28 07:22N 34°39' E 135°26'0 0.0
2017-Oct-28 06:22N 34°39' E 135°26'0 0.0
2017-Oct-28 05:10N 34°39' E 135°26'0 0.0
2017-Oct-28 04:52N 34°39' E 135°26'0 0.0
2017-Oct-28 03:58N 34°39' E 135°26'0 0.0
2017-Oct-28 01:58N 34°39' E 135°26'0 0.0
2017-Oct-28 01:22N 34°39' E 135°26'0 0.1
2017-Oct-28 00:46N 34°39' E 135°26'0 0.0
2017-Oct-28 00:28N 34°39' E 135°26'0 0.0
2017-Oct-27 23:52N 34°39' E 135°26'0 0.0
2017-Oct-27 23:16N 34°39' E 135°26'0 0.0
2017-Oct-27 22:52N 34°39' E 135°26'0 0.0
2017-Oct-27 22:28N 34°39' E 135°26'0 0.0
2017-Oct-27 21:58N 34°39' E 135°26'0 0.0
2017-Oct-27 21:28N 34°39' E 135°26'0 0.0
2017-Oct-27 20:58N 34°39' E 135°26'0 0.0
2017-Oct-27 20:28N 34°39' E 135°26'0 0.0
2017-Oct-27 19:58N 34°39' E 135°26'0 0.0
2017-Oct-27 19:28N 34°39' E 135°26'0 0.1
2017-Oct-27 18:52N 34°39' E 135°26'0 0.1
2017-Oct-27 18:16N 34°39' E 135°26'0 0.1
2017-Oct-27 17:58N 34°39' E 135°26'0 0.0
2017-Oct-27 17:28N 34°39' E 135°26'0 0.0
2017-Oct-27 16:46N 34°39' E 135°26'0 0.0
2017-Oct-27 16:28N 34°39' E 135°26'0 0.0
2017-Oct-27 15:46N 34°39' E 135°26'0 0.0
2017-Oct-27 15:28N 34°39' E 135°26'0 0.0
2017-Oct-27 12:04N 34°39' E 135°26'0 0.0
2017-Oct-27 11:46N 34°39' E 135°26'0 0.0
2017-Oct-27 08:04N 34°39' E 135°26'0 0.0
2017-Oct-27 07:34N 34°39' E 135°26'0 0.0
2017-Oct-27 06:40N 34°39' E 135°26'0 0.1
2017-Oct-27 06:28N 34°39' E 135°26'0 0.0
2017-Oct-27 05:34N 34°39' E 135°26'0 0.0
2017-Oct-27 05:28N 34°39' E 135°26'0 0.0
2017-Oct-27 03:10N 34°39' E 135°26'0 0.0
2017-Oct-27 02:46N 34°39' E 135°26'0 0.0
2017-Oct-26 23:58N 34°39' E 135°26'0 0.0
2017-Oct-26 23:10N 34°39' E 135°26'0 0.0
2017-Oct-26 22:46N 34°39' E 135°26'0 0.0
2017-Oct-26 22:28N 34°39' E 135°26'0 0.0
2017-Oct-26 21:40N 34°39' E 135°26'0 0.0
2017-Oct-26 20:40N 34°39' E 135°26'0 0.0
2017-Oct-26 20:28N 34°39' E 135°26'0 0.0
2017-Oct-26 19:58N 34°39' E 135°26'0 0.0
2017-Oct-26 19:22N 34°39' E 135°26'0 0.0
2017-Oct-26 18:52N 34°39' E 135°26'0 0.0
2017-Oct-26 18:04N 34°39' E 135°26'0 0.3
2017-Oct-26 17:52N 34°39' E 135°26'0 0.1
2017-Oct-26 17:16N 34°39' E 135°26'0 0.0
2017-Oct-26 16:16N 34°39' E 135°26'0 0.0
2017-Oct-26 15:52N 34°39' E 135°26'0 0.0
2017-Oct-26 14:40N 34°39' E 135°26'0 0.0
2017-Oct-26 14:16N 34°39' E 135°26'0 0.0
2017-Oct-26 13:04N 34°39' E 135°26'0 0.0
2017-Oct-26 12:52N 34°39' E 135°26'0 0.0
2017-Oct-26 12:22N 34°39' E 135°26'0 0.0
2017-Oct-26 11:52N 34°39' E 135°26'0 0.0
2017-Oct-26 11:28N 34°39' E 135°26'0 0.0
2017-Oct-26 09:52N 34°39' E 135°26'0 0.0
2017-Oct-26 09:22N 34°39' E 135°26'0 0.0
2017-Oct-26 07:46N 34°39' E 135°26'0 0.1
2017-Oct-26 07:28N 34°39' E 135°26'0 0.0
2017-Oct-26 06:52N 34°39' E 135°26'0 0.0
2017-Oct-26 04:40N 34°39' E 135°26'0 0.5
2017-Oct-26 04:28N 34°39' E 135°26'0 0.0
2017-Oct-26 03:58N 34°39' E 135°26'0 0.0
2017-Oct-26 03:20N 34°39' E 135°26'1 2.4
2017-Oct-26 02:58N 34°39' E 135°25'2 4.9
2017-Oct-26 02:30N 34°38' E 135°23'3 6.4
2017-Oct-26 01:59N 34°35' E 135°20'0 0.1
2017-Oct-26 01:15N 34°35' E 135°20'0 0.2
2017-Oct-26 00:51N 34°35' E 135°20'0 0.0
2017-Oct-26 00:21N 34°35' E 135°20'0 0.0
2017-Oct-25 23:57N 34°35' E 135°20'0 0.0
2017-Oct-25 21:27N 34°35' E 135°20'0 0.0
2017-Oct-25 20:09N 34°35' E 135°20'0 0.0
2017-Oct-25 18:39N 34°35' E 135°20'0 0.0
2017-Oct-25 18:15N 34°35' E 135°20'0 0.1
2017-Oct-25 17:57N 34°35' E 135°20'0 0.1
2017-Oct-25 17:09N 34°35' E 135°20'0 0.2
2017-Oct-25 16:51N 34°35' E 135°20'0 0.1
2017-Oct-25 16:27N 34°35' E 135°20'0 0.0
2017-Oct-25 15:45N 34°35' E 135°20'0 0.0
2017-Oct-25 14:15N 34°35' E 135°20'0 0.0
2017-Oct-25 13:51N 34°35' E 135°20'0 0.0
2017-Oct-25 12:33N 34°35' E 135°20'0 0.0
2017-Oct-25 11:21N 34°35' E 135°20'0 0.0
2017-Oct-25 10:33N 34°35' E 135°20'0 0.0
2017-Oct-25 10:27N 34°35' E 135°20'0 0.0
2017-Oct-25 09:51N 34°35' E 135°20'0 0.0
2017-Oct-25 09:27N 34°35' E 135°20'0 0.0
2017-Oct-25 08:57N 34°35' E 135°20'0 0.0
2017-Oct-25 08:27N 34°35' E 135°20'0 0.0
2017-Oct-25 07:33N 34°35' E 135°20'0 0.1
2017-Oct-25 07:15N 34°35' E 135°20'0 0.0
2017-Oct-25 06:57N 34°35' E 135°20'0 0.3
2017-Oct-25 06:30N 34°35' E 135°20'1 2.9
2017-Oct-25 05:59N 34°34' E 135°19'4 8.6
2017-Oct-25 05:28N 34°34' E 135°13'5 9.6
2017-Oct-25 04:59N 34°35' E 135°08'4 9.2
2017-Oct-25 04:30N 34°36' E 135°03'  

Dump ship's entire track history